Time;durP1;ratioP1;P1;durP2;ratioP2;P2;SDS_P1;SDS_P2;PMS_P1;PMS_P2;Temp;Humidity;BMP_temperature;BMP_pressure;BME280_temperature;BME280_humidity;BME280_pressure;Samples;Min_cycle;Max_cycle;Signal;HPM_P1;HPM_P2
2022/08/10 00:00:19;;;;;;;;;;;;;;;;;;4966393;28;19988;-44
2022/08/10 00:02:12;;;;;;;;;;;;;;;;;;4967373;28;19968;-42
2022/08/10 00:04:39;;;;;;;;;;;;;;;;;;4965974;28;20400;-42
2022/08/10 00:07:06;;;;;;;;;;;;;;;;;;4965929;28;20326;-42
2022/08/10 00:09:33;;;;;;;;;;;;;;;;;;4966442;28;19921;-42
2022/08/10 00:11:58;;;;;;;;;;;;;;;;;;4966580;28;19910;-42
2022/08/10 00:14:24;;;;;;;;;;;;;;;;;;4966143;28;19917;-42
2022/08/10 00:16:50;;;;;;;;;;;;;;;;;;4966752;28;19990;-42
2022/08/10 00:19:17;;;;;;;;;;;;;;;;;;4966435;28;19914;-41
2022/08/10 00:21:43;;;;;;;;;;;;;;;;;;4966923;28;19921;-42
2022/08/10 00:24:09;;;;;;;;;;;;;;;;;;4967021;28;19914;-43
2022/08/10 00:26:35;;;;;;;;;;;;;;;;;;4966045;28;19910;-42
2022/08/10 00:29:01;;;;;;;;;;;;;;;;;;4966516;28;19921;-42
2022/08/10 00:31:27;;;;;;;;;;;;;;;;;;4966460;28;19914;-42
2022/08/10 00:33:54;;;;;;;;;;;;;;;;;;4966690;28;19919;-42
2022/08/10 00:36:19;;;;;;;;;;;;;;;;;;4966392;28;19933;-42
2022/08/10 00:38:45;;;;;;;;;;;;;;;;;;4964808;28;20016;-41
2022/08/10 00:41:11;;;;;;;;;;;;;;;;;;4966897;28;19953;-43
2022/08/10 00:43:37;;;;;;;;;;;;;;;;;;4966025;28;20280;-42
2022/08/10 00:46:03;;;;;;;;;;;;;;;;;;4966301;28;19917;-42
2022/08/10 00:48:29;;;;;;;;;;;;;;;;;;4966066;28;19915;-41
2022/08/10 00:50:55;;;;;;;;;;;;;;;;;;4966265;28;19917;-42
2022/08/10 00:53:21;;;;;;;;;;;;;;;;;;4966423;28;19961;-42
2022/08/10 00:55:47;;;;;;;;;;;;;;;;;;4965694;28;20322;-42
2022/08/10 00:58:14;;;;;;;;;;;;;;;;;;4967098;28;19917;-41
2022/08/10 01:00:41;;;;;;;;;;;;;;;;;;4966400;28;19918;-41
2022/08/10 01:03:07;;;;;;;;;;;;;;;;;;4966129;28;19956;-42
2022/08/10 01:05:33;;;;;;;;;;;;;;;;;;4965607;28;19949;-41
2022/08/10 01:07:59;;;;;;;;;;;;;;;;;;4966243;28;20339;-41
2022/08/10 01:10:25;;;;;;;;;;;;;;;;;;4965557;28;19977;-42
2022/08/10 01:12:51;;;;;;;;;;;;;;;;;;4966034;28;19914;-42
2022/08/10 01:15:17;;;;;;;;;;;;;;;;;;4965946;28;20378;-42
2022/08/10 01:17:43;;;;;;;;;;;;;;;;;;4967807;28;19992;-42
2022/08/10 01:20:09;;;;;;;;;;;;;;;;;;4969774;28;19910;-42
2022/08/10 01:22:37;;;;;;;;;;;;;;;;;;4969405;28;19952;-42
2022/08/10 01:25:03;;;;;;;;;;;;;;;;;;4969320;28;19921;-42
2022/08/10 01:27:28;;;;;;;;;;;;;;;;;;4969796;28;19997;-42
2022/08/10 01:29:54;;;;;;;;;;;;;;;;;;4969477;28;19910;-42
2022/08/10 01:32:21;;;;;;;;;;;;;;;;;;4969750;28;19917;-41
2022/08/10 01:34:48;;;;;;;;;;;;;;;;;;4969132;28;19929;-42
2022/08/10 01:37:14;;;;;;;;;;;;;;;;;;4969719;28;20530;-41
2022/08/10 01:39:40;;;;;;;;;;;;;;;;;;4970007;28;19964;-43
2022/08/10 01:42:06;;;;;;;;;;;;;;;;;;4969314;28;20391;-42
2022/08/10 01:44:32;;;;;;;;;;;;;;;;;;4968878;28;19918;-41
2022/08/10 01:48:27;;;;;;;;;;;;;;;;;;4967899;28;19914;-42
2022/08/10 01:49:44;;;;;;;;;;;;;;;;;;4969137;28;19925;-42
2022/08/10 01:52:10;;;;;;;;;;;;;;;;;;4969893;28;19910;-42
2022/08/10 01:54:36;;;;;;;;;;;;;;;;;;4968720;28;19925;-42
2022/08/10 01:57:02;;;;;;;;;;;;;;;;;;4969151;28;19918;-41
2022/08/10 01:59:29;;;;;;;;;;;;;;;;;;4968738;28;19937;-43
2022/08/10 02:01:55;;;;;;;;;;;;;;;;;;4968891;28;19957;-42
2022/08/10 02:04:21;;;;;;;;;;;;;;;;;;4968252;28;19929;-42
2022/08/10 02:06:46;;;;;;;;;;;;;;;;;;4968506;28;19914;-41
2022/08/10 02:09:12;;;;;;;;;;;;;;;;;;4969407;28;20001;-41
2022/08/10 02:11:38;;;;;;;;;;;;;;;;;;4968542;28;20399;-42
2022/08/10 02:14:04;;;;;;;;;;;;;;;;;;4968630;28;19965;-42
2022/08/10 02:16:30;;;;;;;;;;;;;;;;;;4968490;28;20303;-42
2022/08/10 02:18:56;;;;;;;;;;;;;;;;;;4968390;28;19937;-42
2022/08/10 02:21:23;;;;;;;;;;;;;;;;;;4968452;28;20330;-42
2022/08/10 02:23:49;;;;;;;;;;;;;;;;;;4968557;28;19914;-43
2022/08/10 02:26:14;;;;;;;;;;;;;;;;;;4968354;28;20450;-41
2022/08/10 02:28:40;;;;;;;;;;;;;;;;;;4968359;28;19917;-42
2022/08/10 02:31:06;;;;;;;;;;;;;;;;;;4968307;28;19957;-43
2022/08/10 02:33:32;;;;;;;;;;;;;;;;;;4967922;28;20366;-42
2022/08/10 02:35:58;;;;;;;;;;;;;;;;;;4968037;28;19952;-41
2022/08/10 02:38:24;;;;;;;;;;;;;;;;;;4968035;28;19941;-42
2022/08/10 02:40:50;;;;;;;;;;;;;;;;;;4968364;28;19910;-42
2022/08/10 02:43:16;;;;;;;;;;;;;;;;;;4968091;28;19961;-41
2022/08/10 02:45:42;;;;;;;;;;;;;;;;;;4968533;28;19960;-42
2022/08/10 02:48:07;;;;;;;;;;;;;;;;;;4967946;28;19914;-41
2022/08/10 02:50:34;;;;;;;;;;;;;;;;;;4967609;28;19910;-42
2022/08/10 02:53:01;;;;;;;;;;;;;;;;;;4967904;28;19957;-42
2022/08/10 02:55:27;;;;;;;;;;;;;;;;;;4968003;28;19914;-42
2022/08/10 02:57:53;;;;;;;;;;;;;;;;;;4967960;28;20315;-43
2022/08/10 03:00:19;;;;;;;;;;;;;;;;;;4967894;28;19917;-42
2022/08/10 03:02:45;;;;;;;;;;;;;;;;;;4967389;28;19910;-42
2022/08/10 03:05:11;;;;;;;;;;;;;;;;;;4968398;28;19921;-42
2022/08/10 03:07:37;;;;;;;;;;;;;;;;;;4967600;28;19914;-42
2022/08/10 03:10:03;;;;;;;;;;;;;;;;;;4967935;28;19988;-42
2022/08/10 03:12:30;;;;;;;;;;;;;;;;;;4967479;28;19910;-41
2022/08/10 03:14:56;;;;;;;;;;;;;;;;;;4967531;28;20410;-41
2022/08/10 03:17:21;;;;;;;;;;;;;;;;;;4967398;28;19914;-42
2022/08/10 03:19:47;;;;;;;;;;;;;;;;;;4967249;28;19969;-42
2022/08/10 03:22:14;;;;;;;;;;;;;;;;;;4967999;28;19956;-41
2022/08/10 03:24:40;;;;;;;;;;;;;;;;;;4967697;28;19914;-41
2022/08/10 03:27:06;;;;;;;;;;;;;;;;;;4967445;28;19918;-43
2022/08/10 03:29:32;;;;;;;;;;;;;;;;;;4966901;28;19918;-42
2022/08/10 03:31:58;;;;;;;;;;;;;;;;;;4967301;28;19918;-42
2022/08/10 03:34:24;;;;;;;;;;;;;;;;;;4966645;28;19917;-42
2022/08/10 03:36:50;;;;;;;;;;;;;;;;;;4967212;28;20171;-42
2022/08/10 03:39:17;;;;;;;;;;;;;;;;;;4967270;28;19910;-41
2022/08/10 03:41:42;;;;;;;;;;;;;;;;;;4967690;28;19921;-42
2022/08/10 03:44:08;;;;;;;;;;;;;;;;;;4967131;28;19918;-42
2022/08/10 03:46:34;;;;;;;;;;;;;;;;;;4966833;28;19920;-42
2022/08/10 03:49:00;;;;;;;;;;;;;;;;;;4966720;28;19937;-42
2022/08/10 03:51:26;;;;;;;;;;;;;;;;;;4966787;28;19910;-41
2022/08/10 03:53:52;;;;;;;;;;;;;;;;;;4967118;28;19918;-42
2022/08/10 03:56:18;;;;;;;;;;;;;;;;;;4966801;28;19914;-41
2022/08/10 03:58:44;;;;;;;;;;;;;;;;;;4967413;28;19917;-42
2022/08/10 04:01:10;;;;;;;;;;;;;;;;;;4967431;28;19937;-42
2022/08/10 04:03:35;;;;;;;;;;;;;;;;;;4966068;28;19918;-42
2022/08/10 04:06:01;;;;;;;;;;;;;;;;;;4966734;28;19953;-42
2022/08/10 04:08:28;;;;;;;;;;;;;;;;;;4966579;28;19914;-42
2022/08/10 04:10:55;;;;;;;;;;;;;;;;;;4966954;28;19911;-42
2022/08/10 04:13:21;;;;;;;;;;;;;;;;;;4966444;28;19910;-42
2022/08/10 04:15:48;;;;;;;;;;;;;;;;;;4966482;28;19914;-41
2022/08/10 04:18:13;;;;;;;;;;;;;;;;;;4966886;28;19914;-41
2022/08/10 04:20:39;;;;;;;;;;;;;;;;;;4967162;28;19918;-43
2022/08/10 04:23:06;;;;;;;;;;;;;;;;;;4966534;28;20351;-41
2022/08/10 04:25:32;;;;;;;;;;;;;;;;;;4966045;28;20395;-42
2022/08/10 04:27:58;;;;;;;;;;;;;;;;;;4966554;28;19920;-42
2022/08/10 04:30:24;;;;;;;;;;;;;;;;;;4966178;28;20339;-41
2022/08/10 04:32:50;;;;;;;;;;;;;;;;;;4966459;28;20025;-41
2022/08/10 04:35:16;;;;;;;;;;;;;;;;;;4966337;28;19910;-41
2022/08/10 04:37:42;;;;;;;;;;;;;;;;;;4966775;28;19918;-41
2022/08/10 04:40:08;;;;;;;;;;;;;;;;;;4966636;28;19920;-42
2022/08/10 04:42:34;;;;;;;;;;;;;;;;;;4966047;28;20347;-42
2022/08/10 04:45:07;;;;;;;;;;;;;;;;;;4966367;28;20013;-42
2022/08/10 04:47:33;;;;;;;;;;;;;;;;;;4965740;28;19922;-41
2022/08/10 04:49:59;;;;;;;;;;;;;;;;;;4966572;28;19968;-42
2022/08/10 04:52:25;;;;;;;;;;;;;;;;;;4967422;28;19914;-42
2022/08/10 04:54:51;;;;;;;;;;;;;;;;;;4970091;28;19967;-41
2022/08/10 04:57:17;;;;;;;;;;;;;;;;;;4970214;28;19910;-42
2022/08/10 04:59:43;;;;;;;;;;;;;;;;;;4970436;28;20402;-41
2022/08/10 05:02:09;;;;;;;;;;;;;;;;;;4970336;28;19929;-41
2022/08/10 05:04:35;;;;;;;;;;;;;;;;;;4969438;28;19922;-42
2022/08/10 05:07:01;;;;;;;;;;;;;;;;;;4970422;28;20100;-41
2022/08/10 05:09:26;;;;;;;;;;;;;;;;;;4969579;28;19914;-42
2022/08/10 05:11:52;;;;;;;;;;;;;;;;;;4970186;28;19918;-41
2022/08/10 05:14:18;;;;;;;;;;;;;;;;;;4969894;28;19918;-43
2022/08/10 05:16:44;;;;;;;;;;;;;;;;;;4969315;28;20284;-41
2022/08/10 05:19:11;;;;;;;;;;;;;;;;;;4970489;28;19914;-41
2022/08/10 05:21:37;;;;;;;;;;;;;;;;;;4969441;28;19910;-42
2022/08/10 05:24:03;;;;;;;;;;;;;;;;;;4969470;28;20355;-41
2022/08/10 05:26:29;;;;;;;;;;;;;;;;;;4969333;28;19921;-41
2022/08/10 05:28:55;;;;;;;;;;;;;;;;;;4967994;28;19917;-42
2022/08/10 05:31:20;;;;;;;;;;;;;;;;;;4969636;28;19910;-42
2022/08/10 05:33:47;;;;;;;;;;;;;;;;;;4968128;28;19961;-41
2022/08/10 05:36:14;;;;;;;;;;;;;;;;;;4969273;28;20449;-40
2022/08/10 05:38:40;;;;;;;;;;;;;;;;;;4969339;28;19910;-41
2022/08/10 05:41:06;;;;;;;;;;;;;;;;;;4969139;28;20326;-41
2022/08/10 05:43:32;;;;;;;;;;;;;;;;;;4970357;28;19918;-41
2022/08/10 05:45:58;;;;;;;;;;;;;;;;;;4970214;28;19914;-41
2022/08/10 05:48:24;;;;;;;;;;;;;;;;;;4967996;28;19956;-41
2022/08/10 05:50:50;;;;;;;;;;;;;;;;;;4951084;29;19910;-41
2022/08/10 05:53:15;;;;;;;;;;;;;;;;;;4951294;29;19917;-40
2022/08/10 05:55:41;;;;;;;;;;;;;;;;;;4950885;29;19910;-41
2022/08/10 05:58:08;;;;;;;;;;;;;;;;;;4953278;28;19910;-40
2022/08/10 06:00:33;;;;;;;;;;;;;;;;;;4969619;28;19933;-40
2022/08/10 06:02:59;;;;;;;;;;;;;;;;;;4967874;28;20435;-41
2022/08/10 06:05:25;;;;;;;;;;;;;;;;;;4968903;28;19928;-40
2022/08/10 06:07:51;;;;;;;;;;;;;;;;;;4970387;28;20005;-40
2022/08/10 06:10:17;;;;;;;;;;;;;;;;;;4970073;28;19996;-40
2022/08/10 06:12:43;;;;;;;;;;;;;;;;;;4967911;28;19965;-40
2022/08/10 06:15:09;;;;;;;;;;;;;;;;;;4969933;28;19918;-40
2022/08/10 06:17:35;;;;;;;;;;;;;;;;;;4969371;28;19918;-40
2022/08/10 06:20:01;;;;;;;;;;;;;;;;;;4970699;28;19910;-40
2022/08/10 06:22:27;;;;;;;;;;;;;;;;;;4964431;28;20451;-40
2022/08/10 06:24:53;;;;;;;;;;;;;;;;;;4965168;28;20012;-40
2022/08/10 06:27:19;;;;;;;;;;;;;;;;;;4965595;28;19922;-40
2022/08/10 06:29:45;;;;;;;;;;;;;;;;;;4965672;28;20017;-40
2022/08/10 06:32:11;;;;;;;;;;;;;;;;;;4969607;28;19910;-40
2022/08/10 06:34:37;;;;;;;;;;;;;;;;;;4969463;28;19918;-41
2022/08/10 06:37:03;;;;;;;;;;;;;;;;;;4970345;28;19926;-40
2022/08/10 06:39:29;;;;;;;;;;;;;;;;;;4968973;28;19953;-41
2022/08/10 06:41:55;;;;;;;;;;;;;;;;;;4960054;28;20013;-40
2022/08/10 06:44:21;;;;;;;;;;;;;;;;;;4949626;29;19918;-40
2022/08/10 06:46:47;;;;;;;;;;;;;;;;;;4949285;29;19910;-40
2022/08/10 06:49:13;;;;;;;;;;;;;;;;;;4956812;28;19929;-40
2022/08/10 06:51:39;;;;;;;;;;;;;;;;;;4969395;28;19910;-40
2022/08/10 06:54:04;;;;;;;;;;;;;;;;;;4969750;28;19922;-41
2022/08/10 06:56:32;;;;;;;;;;;;;;;;;;4969800;28;19982;-41
2022/08/10 06:58:58;;;;;;;;;;;;;;;;;;4969596;28;19953;-41
2022/08/10 07:01:24;;;;;;;;;;;;;;;;;;4968806;28;20000;-41
2022/08/10 07:03:50;;;;;;;;;;;;;;;;;;4969212;28;20084;-40
2022/08/10 07:06:16;;;;;;;;;;;;;;;;;;4969159;28;19916;-41
2022/08/10 07:08:42;;;;;;;;;;;;;;;;;;4969020;28;19910;-41
2022/08/10 07:11:07;;;;;;;;;;;;;;;;;;4966424;28;19921;-41
2022/08/10 07:13:33;;;;;;;;;;;;;;;;;;4967225;28;19985;-41
2022/08/10 07:15:59;;;;;;;;;;;;;;;;;;4965008;28;19918;-40
2022/08/10 07:18:25;;;;;;;;;;;;;;;;;;4967978;28;19918;-40
2022/08/10 07:20:52;;;;;;;;;;;;;;;;;;4966519;28;19918;-41
2022/08/10 07:23:18;;;;;;;;;;;;;;;;;;4965796;28;20001;-40
2022/08/10 07:25:44;;;;;;;;;;;;;;;;;;4966435;28;20384;-40
2022/08/10 07:28:10;;;;;;;;;;;;;;;;;;4966093;28;19918;-41
2022/08/10 07:30:36;;;;;;;;;;;;;;;;;;4965603;28;19984;-41
2022/08/10 07:33:02;;;;;;;;;;;;;;;;;;4966666;28;19973;-41
2022/08/10 07:35:28;;;;;;;;;;;;;;;;;;4966683;28;19917;-41
2022/08/10 07:37:54;;;;;;;;;;;;;;;;;;4968764;28;19921;-40
2022/08/10 07:40:20;;;;;;;;;;;;;;;;;;4967478;28;19910;-41
2022/08/10 07:42:45;;;;;;;;;;;;;;;;;;4968171;28;19957;-41
2022/08/10 07:45:11;;;;;;;;;;;;;;;;;;4968285;28;20004;-40
2022/08/10 07:47:37;;;;;;;;;;;;;;;;;;4967411;28;20005;-41
2022/08/10 07:50:03;;;;;;;;;;;;;;;;;;4967072;28;19964;-41
2022/08/10 07:52:29;;;;;;;;;;;;;;;;;;4967051;28;19918;-40
2022/08/10 07:54:55;;;;;;;;;;;;;;;;;;4966091;28;19918;-41
2022/08/10 07:57:21;;;;;;;;;;;;;;;;;;4965903;28;19960;-41
2022/08/10 07:59:47;;;;;;;;;;;;;;;;;;4967957;28;19918;-41
2022/08/10 08:02:13;;;;;;;;;;;;;;;;;;4967286;28;19921;-41
2022/08/10 08:04:39;;;;;;;;;;;;;;;;;;4964266;28;19946;-41
2022/08/10 08:07:07;;;;;;;;;;;;;;;;;;4967235;28;19918;-41
2022/08/10 08:09:33;;;;;;;;;;;;;;;;;;4965911;28;19918;-41
2022/08/10 08:11:59;;;;;;;;;;;;;;;;;;4963866;28;20471;-41
2022/08/10 08:14:25;;;;;;;;;;;;;;;;;;4967233;28;19910;-41
2022/08/10 08:16:51;;;;;;;;;;;;;;;;;;4967215;28;19945;-42
2022/08/10 08:19:17;;;;;;;;;;;;;;;;;;4967663;28;20021;-41
2022/08/10 08:21:43;;;;;;;;;;;;;;;;;;4966278;28;21002;-41
2022/08/10 08:24:09;;;;;;;;;;;;;;;;;;4965676;28;19918;-41
2022/08/10 08:26:35;;;;;;;;;;;;;;;;;;4965879;28;19976;-41
2022/08/10 08:29:01;;;;;;;;;;;;;;;;;;4962266;28;19950;-41
2022/08/10 08:31:27;;;;;;;;;;;;;;;;;;4966853;28;19941;-41
2022/08/10 08:33:52;;;;;;;;;;;;;;;;;;4967743;28;19914;-41
2022/08/10 08:36:18;;;;;;;;;;;;;;;;;;4964157;28;19915;-41
2022/08/10 08:38:44;;;;;;;;;;;;;;;;;;4967059;28;19997;-41
2022/08/10 08:41:10;;;;;;;;;;;;;;;;;;4966118;28;19918;-41
2022/08/10 08:43:36;;;;;;;;;;;;;;;;;;4967543;28;19918;-41
2022/08/10 08:46:02;;;;;;;;;;;;;;;;;;4966850;28;19922;-41
2022/08/10 08:48:28;;;;;;;;;;;;;;;;;;4965120;28;20009;-41
2022/08/10 08:50:54;;;;;;;;;;;;;;;;;;4967256;28;20380;-41
2022/08/10 08:53:20;;;;;;;;;;;;;;;;;;4967847;28;19937;-41
2022/08/10 08:55:46;;;;;;;;;;;;;;;;;;4967425;28;19922;-41
2022/08/10 08:58:13;;;;;;;;;;;;;;;;;;4967165;28;20021;-41
2022/08/10 09:00:39;;;;;;;;;;;;;;;;;;4963514;28;19914;-41
2022/08/10 09:03:05;;;;;;;;;;;;;;;;;;4967318;28;19989;-41
2022/08/10 09:05:31;;;;;;;;;;;;;;;;;;4967173;28;20001;-43
2022/08/10 09:07:57;;;;;;;;;;;;;;;;;;4967507;28;19959;-41
2022/08/10 09:10:23;;;;;;;;;;;;;;;;;;4966059;28;19918;-41
2022/08/10 09:12:49;;;;;;;;;;;;;;;;;;4967718;28;19956;-41
2022/08/10 09:15:15;;;;;;;;;;;;;;;;;;4967881;28;19910;-41
2022/08/10 09:17:41;;;;;;;;;;;;;;;;;;4966722;28;19918;-41
2022/08/10 09:20:07;;;;;;;;;;;;;;;;;;4966642;28;19940;-42
2022/08/10 09:22:33;;;;;;;;;;;;;;;;;;4965877;28;19921;-41
2022/08/10 09:24:59;;;;;;;;;;;;;;;;;;4965236;28;20647;-42
2022/08/10 09:27:24;;;;;;;;;;;;;;;;;;4967444;28;19945;-41
2022/08/10 09:29:50;;;;;;;;;;;;;;;;;;4966012;28;19953;-42
2022/08/10 09:32:16;;;;;;;;;;;;;;;;;;4967432;28;19969;-41
2022/08/10 09:34:42;;;;;;;;;;;;;;;;;;4966295;28;20024;-41
2022/08/10 09:37:08;;;;;;;;;;;;;;;;;;4965606;28;19914;-42
2022/08/10 09:39:34;;;;;;;;;;;;;;;;;;4970001;28;20009;-42
2022/08/10 09:42:00;;;;;;;;;;;;;;;;;;4971501;28;19914;-42
2022/08/10 09:44:26;;;;;;;;;;;;;;;;;;4970427;28;20391;-42
2022/08/10 09:46:52;;;;;;;;;;;;;;;;;;4969841;28;19945;-43
2022/08/10 09:49:18;;;;;;;;;;;;;;;;;;4970667;28;19910;-42
2022/08/10 09:51:44;;;;;;;;;;;;;;;;;;4970531;28;19957;-42
2022/08/10 09:54:10;;;;;;;;;;;;;;;;;;4969923;28;19940;-43
2022/08/10 09:56:36;;;;;;;;;;;;;;;;;;4969439;28;20012;-42
2022/08/10 09:59:02;;;;;;;;;;;;;;;;;;4970070;28;19925;-41
2022/08/10 10:01:28;;;;;;;;;;;;;;;;;;4970048;28;20391;-41
2022/08/10 10:03:54;;;;;;;;;;;;;;;;;;4970259;28;19921;-42
2022/08/10 10:06:20;;;;;;;;;;;;;;;;;;4970191;28;19910;-43
2022/08/10 10:08:46;;;;;;;;;;;;;;;;;;4970456;28;19913;-42
2022/08/10 10:11:12;;;;;;;;;;;;;;;;;;4967946;28;19918;-41
2022/08/10 10:13:38;;;;;;;;;;;;;;;;;;4969874;28;19917;-43
2022/08/10 10:16:04;;;;;;;;;;;;;;;;;;4969547;28;19925;-41
2022/08/10 10:18:30;;;;;;;;;;;;;;;;;;4970495;28;19917;-43
2022/08/10 10:20:56;;;;;;;;;;;;;;;;;;4969085;28;20470;-42
2022/08/10 10:23:22;;;;;;;;;;;;;;;;;;4969461;28;20636;-42
2022/08/10 10:25:48;;;;;;;;;;;;;;;;;;4970017;28;19937;-42
2022/08/10 10:28:14;;;;;;;;;;;;;;;;;;4970017;28;19914;-42
2022/08/10 10:30:39;;;;;;;;;;;;;;;;;;4968911;28;19914;-42
2022/08/10 10:33:05;;;;;;;;;;;;;;;;;;4966939;28;20025;-41
2022/08/10 10:35:31;;;;;;;;;;;;;;;;;;4970131;28;19921;-42
2022/08/10 10:37:57;;;;;;;;;;;;;;;;;;4970807;28;19914;-41
2022/08/10 10:40:23;;;;;;;;;;;;;;;;;;4969782;28;20386;-41
2022/08/10 10:42:49;;;;;;;;;;;;;;;;;;4968141;28;19915;-41
2022/08/10 10:45:15;;;;;;;;;;;;;;;;;;4968531;28;19918;-42
2022/08/10 10:47:45;;;;;;;;;;;;;;;;;;4969499;28;20000;-43
2022/08/10 10:50:14;;;;;;;;;;;;;;;;;;4968007;28;20303;-43
2022/08/10 10:52:40;;;;;;;;;;;;;;;;;;4969512;28;19937;-42
2022/08/10 10:55:06;;;;;;;;;;;;;;;;;;4969589;28;20001;-42
2022/08/10 10:57:32;;;;;;;;;;;;;;;;;;4968260;28;20724;-44
2022/08/10 10:59:57;;;;;;;;;;;;;;;;;;4969300;28;19973;-43
2022/08/10 11:02:23;;;;;;;;;;;;;;;;;;4969259;28;19961;-42
2022/08/10 11:04:49;;;;;;;;;;;;;;;;;;4969749;28;19957;-44
2022/08/10 11:07:15;;;;;;;;;;;;;;;;;;4968918;28;19981;-43
2022/08/10 11:09:41;;;;;;;;;;;;;;;;;;4967252;28;20013;-43
2022/08/10 11:12:07;;;;;;;;;;;;;;;;;;4968203;28;19961;-43
2022/08/10 11:14:33;;;;;;;;;;;;;;;;;;4968362;28;19946;-44
2022/08/10 11:16:59;;;;;;;;;;;;;;;;;;4968801;28;19910;-44
2022/08/10 11:19:25;;;;;;;;;;;;;;;;;;4964059;28;19921;-43
2022/08/10 11:21:51;;;;;;;;;;;;;;;;;;4965943;28;19918;-44
2022/08/10 11:24:17;;;;;;;;;;;;;;;;;;4965264;28;19918;-43
2022/08/10 11:26:43;;;;;;;;;;;;;;;;;;4965035;28;20343;-43
2022/08/10 11:29:09;;;;;;;;;;;;;;;;;;4965762;28;19965;-43
2022/08/10 11:31:35;;;;;;;;;;;;;;;;;;4966419;28;19914;-43
2022/08/10 11:34:01;;;;;;;;;;;;;;;;;;4966451;28;20310;-43
2022/08/10 11:36:26;;;;;;;;;;;;;;;;;;4978738;28;19985;-43
2022/08/10 11:38:53;;;;;;;;;;;;;;;;;;4963200;28;20043;-43
2022/08/10 11:41:19;;;;;;;;;;;;;;;;;;4965364;28;19914;-43
2022/08/10 11:43:45;;;;;;;;;;;;;;;;;;4966008;28;19921;-44
2022/08/10 11:46:11;;;;;;;;;;;;;;;;;;4966595;28;20395;-42
2022/08/10 11:48:37;;;;;;;;;;;;;;;;;;4965124;28;19917;-43
2022/08/10 11:51:04;;;;;;;;;;;;;;;;;;4966500;28;19921;-43
2022/08/10 11:53:30;;;;;;;;;;;;;;;;;;4966843;28;19956;-42
2022/08/10 11:55:56;;;;;;;;;;;;;;;;;;4965153;28;20372;-43
2022/08/10 12:01:07;;;;;;;;;;;;;;;;;;4964422;28;19954;-42
2022/08/10 12:03:33;;;;;;;;;;;;;;;;;;4965247;28;19925;-43
2022/08/10 12:05:59;;;;;;;;;;;;;;;;;;4966008;28;19969;-43
2022/08/10 12:08:25;;;;;;;;;;;;;;;;;;4965841;28;19960;-42
2022/08/10 12:10:51;;;;;;;;;;;;;;;;;;4961934;28;19957;-43
2022/08/10 12:13:17;;;;;;;;;;;;;;;;;;4965307;28;20419;-43
2022/08/10 12:15:44;;;;;;;;;;;;;;;;;;4965677;28;19920;-42
2022/08/10 12:18:10;;;;;;;;;;;;;;;;;;4966333;28;19910;-43
2022/08/10 12:20:36;;;;;;;;;;;;;;;;;;4965910;28;19937;-43
2022/08/10 12:23:02;;;;;;;;;;;;;;;;;;4966368;28;20021;-42
2022/08/10 12:25:28;;;;;;;;;;;;;;;;;;4965342;28;19941;-43
2022/08/10 12:27:54;;;;;;;;;;;;;;;;;;4964555;28;19915;-44
2022/08/10 12:30:20;;;;;;;;;;;;;;;;;;4964898;28;20272;-43
2022/08/10 12:32:46;;;;;;;;;;;;;;;;;;4964115;28;19914;-44
2022/08/10 12:35:12;;;;;;;;;;;;;;;;;;4965951;28;19918;-44
2022/08/10 12:37:39;;;;;;;;;;;;;;;;;;4962661;28;19918;-43
2022/08/10 12:40:06;;;;;;;;;;;;;;;;;;4966550;28;19921;-44
2022/08/10 12:42:32;;;;;;;;;;;;;;;;;;4966571;28;19910;-43
2022/08/10 12:44:58;;;;;;;;;;;;;;;;;;4966819;28;20406;-43
2022/08/10 12:47:23;;;;;;;;;;;;;;;;;;4966216;28;19910;-42
2022/08/10 12:49:49;;;;;;;;;;;;;;;;;;4966362;28;20519;-43
2022/08/10 12:52:16;;;;;;;;;;;;;;;;;;4962204;28;19929;-41
2022/08/10 12:54:42;;;;;;;;;;;;;;;;;;4964203;28;19949;-41
2022/08/10 12:57:08;;;;;;;;;;;;;;;;;;4965201;28;20390;-42
2022/08/10 12:59:34;;;;;;;;;;;;;;;;;;4966369;28;19917;-41
2022/08/10 13:02:01;;;;;;;;;;;;;;;;;;4966866;28;19968;-41
2022/08/10 13:04:28;;;;;;;;;;;;;;;;;;4965977;28;19918;-41
2022/08/10 13:06:54;;;;;;;;;;;;;;;;;;4966029;28;19923;-41
2022/08/10 13:09:21;;;;;;;;;;;;;;;;;;4965749;28;20211;-42
2022/08/10 13:11:48;;;;;;;;;;;;;;;;;;4965922;28;20355;-42
2022/08/10 13:14:14;;;;;;;;;;;;;;;;;;4968793;28;19910;-42
2022/08/10 13:16:40;;;;;;;;;;;;;;;;;;4969806;28;19997;-42
2022/08/10 13:19:07;;;;;;;;;;;;;;;;;;4969837;28;19924;-42
2022/08/10 13:21:34;;;;;;;;;;;;;;;;;;4969501;28;20318;-40
2022/08/10 13:24:00;;;;;;;;;;;;;;;;;;4970293;28;20371;-42
2022/08/10 13:26:26;;;;;;;;;;;;;;;;;;4969237;28;19911;-41
2022/08/10 13:28:53;;;;;;;;;;;;;;;;;;4969701;28;19945;-42
2022/08/10 13:31:19;;;;;;;;;;;;;;;;;;4969582;28;20011;-42
2022/08/10 13:33:45;;;;;;;;;;;;;;;;;;4969476;28;20013;-42
2022/08/10 13:36:11;;;;;;;;;;;;;;;;;;4969322;28;19921;-42
2022/08/10 13:38:37;;;;;;;;;;;;;;;;;;4969087;28;20314;-41
2022/08/10 13:41:03;;;;;;;;;;;;;;;;;;4969363;28;19950;-44
2022/08/10 13:43:29;;;;;;;;;;;;;;;;;;4969785;28;19910;-41
2022/08/10 13:45:55;;;;;;;;;;;;;;;;;;4967849;28;19946;-42
2022/08/10 13:48:21;;;;;;;;;;;;;;;;;;4969323;28;20395;-44
2022/08/10 13:50:47;;;;;;;;;;;;;;;;;;4969015;28;19957;-42
2022/08/10 13:53:13;;;;;;;;;;;;;;;;;;4969345;28;19918;-43
2022/08/10 13:55:39;;;;;;;;;;;;;;;;;;4969025;28;19914;-43
2022/08/10 13:58:05;;;;;;;;;;;;;;;;;;4968900;28;20418;-43
2022/08/10 14:00:31;;;;;;;;;;;;;;;;;;4969816;28;19910;-43
2022/08/10 14:02:56;;;;;;;;;;;;;;;;;;4968953;28;19981;-41
2022/08/10 14:05:22;;;;;;;;;;;;;;;;;;4968884;28;19962;-43
2022/08/10 14:07:48;;;;;;;;;;;;;;;;;;4968987;28;19914;-42
2022/08/10 14:10:14;;;;;;;;;;;;;;;;;;4969084;28;19913;-41
2022/08/10 14:12:41;;;;;;;;;;;;;;;;;;4968334;28;19910;-43
2022/08/10 14:15:07;;;;;;;;;;;;;;;;;;4969162;28;20356;-41
2022/08/10 14:17:33;;;;;;;;;;;;;;;;;;4968611;28;19937;-41
2022/08/10 14:19:59;;;;;;;;;;;;;;;;;;4969499;28;20026;-42
2022/08/10 14:22:25;;;;;;;;;;;;;;;;;;4968772;28;19914;-41
2022/08/10 14:24:52;;;;;;;;;;;;;;;;;;4967402;28;19914;-41
2022/08/10 14:27:18;;;;;;;;;;;;;;;;;;4968376;28;19916;-42
2022/08/10 14:29:45;;;;;;;;;;;;;;;;;;4968388;28;19914;-43
2022/08/10 14:32:10;;;;;;;;;;;;;;;;;;4968460;28;19917;-43
2022/08/10 14:34:38;;;;;;;;;;;;;;;;;;4968324;28;19937;-41
2022/08/10 14:37:03;;;;;;;;;;;;;;;;;;4968346;28;19914;-41
2022/08/10 14:39:30;;;;;;;;;;;;;;;;;;4968773;28;19957;-42
2022/08/10 14:41:56;;;;;;;;;;;;;;;;;;4968156;28;19949;-45
2022/08/10 14:44:23;;;;;;;;;;;;;;;;;;4968177;28;19966;-42
2022/08/10 14:46:50;;;;;;;;;;;;;;;;;;4968234;28;19920;-43
2022/08/10 14:49:16;;;;;;;;;;;;;;;;;;4968239;28;19914;-42
2022/08/10 14:51:42;;;;;;;;;;;;;;;;;;4968073;28;19925;-41
2022/08/10 14:54:09;;;;;;;;;;;;;;;;;;4968151;28;19911;-42
2022/08/10 14:56:35;;;;;;;;;;;;;;;;;;4967422;28;19915;-43
2022/08/10 14:59:03;;;;;;;;;;;;;;;;;;4968853;28;19910;-42
2022/08/10 15:01:30;;;;;;;;;;;;;;;;;;4968572;28;20355;-43
2022/08/10 15:03:56;;;;;;;;;;;;;;;;;;4967954;28;20438;-41
2022/08/10 15:06:22;;;;;;;;;;;;;;;;;;4967971;28;19914;-42
2022/08/10 15:08:48;;;;;;;;;;;;;;;;;;4968099;28;19910;-41
2022/08/10 15:11:13;;;;;;;;;;;;;;;;;;4967983;28;19921;-41
2022/08/10 15:13:39;;;;;;;;;;;;;;;;;;4967574;28;19921;-41
2022/08/10 15:16:05;;;;;;;;;;;;;;;;;;4967606;28;19950;-42
2022/08/10 15:18:31;;;;;;;;;;;;;;;;;;4967989;28;19910;-41
2022/08/10 15:20:57;;;;;;;;;;;;;;;;;;4968259;28;20292;-42
2022/08/10 15:23:23;;;;;;;;;;;;;;;;;;4967197;28;19910;-41
2022/08/10 15:25:50;;;;;;;;;;;;;;;;;;4967085;28;20414;-42
2022/08/10 15:28:16;;;;;;;;;;;;;;;;;;4967278;28;20395;-42
2022/08/10 15:30:42;;;;;;;;;;;;;;;;;;4967124;28;19914;-43
2022/08/10 15:38:38;;;;;;;;;;;;;;;;;;4966770;28;19917;-41
2022/08/10 15:41:04;;;;;;;;;;;;;;;;;;4967167;28;19914;-43
2022/08/10 15:43:33;;;;;;;;;;;;;;;;;;4967463;28;20399;-42
2022/08/10 15:45:59;;;;;;;;;;;;;;;;;;4968325;28;19921;-43
2022/08/10 15:48:25;;;;;;;;;;;;;;;;;;4968311;28;20351;-43
2022/08/10 15:50:51;;;;;;;;;;;;;;;;;;4967939;28;19957;-43
2022/08/10 15:53:17;;;;;;;;;;;;;;;;;;4967811;28;19914;-43
2022/08/10 15:55:43;;;;;;;;;;;;;;;;;;4968160;28;19918;-43
2022/08/10 15:58:08;;;;;;;;;;;;;;;;;;4963726;28;20052;-41
2022/08/10 16:00:34;;;;;;;;;;;;;;;;;;4968692;28;19934;-43
2022/08/10 16:03:00;;;;;;;;;;;;;;;;;;4970161;28;19914;-42
2022/08/10 16:05:27;;;;;;;;;;;;;;;;;;4967072;28;19924;-43
2022/08/10 16:07:53;;;;;;;;;;;;;;;;;;4966658;28;19921;-42
2022/08/10 16:10:19;;;;;;;;;;;;;;;;;;4966095;28;20373;-42
2022/08/10 16:12:45;;;;;;;;;;;;;;;;;;4967425;28;19918;-42
2022/08/10 16:15:12;;;;;;;;;;;;;;;;;;4966587;28;20391;-43
2022/08/10 16:17:38;;;;;;;;;;;;;;;;;;4967684;28;19965;-41
2022/08/10 16:20:04;;;;;;;;;;;;;;;;;;4968174;28;19910;-42
2022/08/10 16:22:30;;;;;;;;;;;;;;;;;;4967779;28;20446;-42
2022/08/10 16:24:57;;;;;;;;;;;;;;;;;;4966412;28;19936;-42
2022/08/10 16:27:23;;;;;;;;;;;;;;;;;;4968451;28;19973;-42
2022/08/10 16:29:49;;;;;;;;;;;;;;;;;;4977317;28;19922;-42
2022/08/10 16:32:15;;;;;;;;;;;;;;;;;;4967808;28;19968;-43
2022/08/10 16:34:41;;;;;;;;;;;;;;;;;;4966665;28;19969;-41
2022/08/10 16:37:08;;;;;;;;;;;;;;;;;;4964955;28;20303;-42
2022/08/10 16:39:34;;;;;;;;;;;;;;;;;;4966295;28;19919;-42
2022/08/10 16:42:00;;;;;;;;;;;;;;;;;;4969532;28;19949;-41
2022/08/10 16:44:26;;;;;;;;;;;;;;;;;;4967488;28;20274;-42